Time;durP1;ratioP1;P1;durP2;ratioP2;P2;SDS_P1;SDS_P2;PMS_P1;PMS_P2;Temp;Humidity;BMP_temperature;BMP_pressure;BME280_temperature;BME280_humidity;BME280_pressure;Samples;Min_cycle;Max_cycle;Signal;HPM_P1;HPM_P2
2022/03/17 00:01:39;;;;;;;48.30;33.23;;;;;;;;;;5013944;28;22115;-62
2022/03/17 00:04:55;;;;;;;46.17;34.47;;;;;;;;;;5009656;28;20189;-65
2022/03/17 00:08:11;;;;;;;50.07;35.00;;;;;;;;;;5011938;28;20198;-64
2022/03/17 00:11:28;;;;;;;53.00;35.50;;;;;;;;;;5006422;28;20785;-65
2022/03/17 00:14:45;;;;;;;50.57;35.20;;;;;;;;;;5008884;28;20633;-65
2022/03/17 00:18:01;;;;;;;57.03;37.50;;;;;;;;;;4997385;28;20214;-64
2022/03/17 00:21:17;;;;;;;47.03;33.97;;;;;;;;;;5000613;28;20243;-63
2022/03/17 00:24:33;;;;;;;54.63;37.07;;;;;;;;;;5013475;28;20193;-65
2022/03/17 00:27:49;;;;;;;54.80;37.53;;;;;;;;;;4991049;28;20225;-64
2022/03/17 00:31:05;;;;;;;50.23;36.13;;;;;;;;;;5004864;28;20202;-64
2022/03/17 00:34:21;;;;;;;46.83;34.30;;;;;;;;;;5003582;28;20432;-65
2022/03/17 00:37:37;;;;;;;49.50;35.37;;;;;;;;;;4989227;28;20895;-64
2022/03/17 00:40:54;;;;;;;49.90;34.50;;;;;;;;;;4997185;28;20210;-64
2022/03/17 00:44:10;;;;;;;48.73;35.67;;;;;;;;;;5017933;28;20278;-65
2022/03/17 00:47:27;;;;;;;46.53;34.40;;;;;;;;;;5020879;28;20897;-63
2022/03/17 17:36:01;;;;;;;63.43;41.60;;;;;;;;;;5010810;28;20214;-64
2022/03/17 17:38:30;;;;;;;65.27;44.17;;;;;;;;;;5012442;28;20238;-63
2022/03/17 17:40:58;;;;;;;66.50;45.23;;;;;;;;;;5026976;28;20199;-66
2022/03/17 17:43:27;;;;;;;70.73;46.80;;;;;;;;;;5011995;28;20214;-64
2022/03/17 17:45:55;;;;;;;65.23;45.67;;;;;;;;;;5020933;28;20203;-63
2022/03/17 17:48:35;;;;;;;69.20;45.43;;;;;;;;;;5030788;28;20233;-64
2022/03/17 17:51:05;;;;;;;72.60;46.33;;;;;;;;;;5009699;28;20277;-64
2022/03/17 17:53:32;;;;;;;68.10;45.60;;;;;;;;;;5016141;28;20215;-64
2022/03/17 17:56:00;;;;;;;68.43;47.10;;;;;;;;;;5013762;28;20249;-64
2022/03/17 17:58:28;;;;;;;70.80;47.23;;;;;;;;;;5008271;28;20230;-64
2022/03/17 18:00:56;;;;;;;75.80;49.07;;;;;;;;;;5025977;28;20206;-65
2022/03/17 18:03:28;;;;;;;73.83;48.37;;;;;;;;;;5015308;28;20202;-64
2022/03/17 18:06:00;;;;;;;72.53;48.00;;;;;;;;;;5026025;28;20204;-64
2022/03/17 18:08:28;;;;;;;75.90;48.00;;;;;;;;;;5015794;28;20241;-65
2022/03/17 18:10:59;;;;;;;72.57;48.87;;;;;;;;;;5016045;28;20204;-65
2022/03/17 18:13:29;;;;;;;75.13;49.47;;;;;;;;;;5012140;28;20223;-65
2022/03/17 18:15:57;;;;;;;75.80;49.23;;;;;;;;;;5022381;28;20218;-66
2022/03/17 18:18:24;;;;;;;71.27;48.30;;;;;;;;;;5017072;28;20604;-65
2022/03/17 18:20:53;;;;;;;71.10;48.30;;;;;;;;;;5026805;28;20207;-62
2022/03/17 18:23:21;;;;;;;78.83;50.93;;;;;;;;;;5005630;28;20676;-63
2022/03/17 18:25:49;;;;;;;81.20;51.30;;;;;;;;;;5023001;28;20384;-64
2022/03/17 18:28:16;;;;;;;75.67;50.27;;;;;;;;;;4993926;28;20234;-65
2022/03/17 18:30:49;;;;;;;76.80;49.60;;;;;;;;;;5023729;28;20214;-64
2022/03/17 18:33:16;;;;;;;77.80;50.90;;;;;;;;;;5016896;28;20217;-65
2022/03/17 18:35:44;;;;;;;80.27;51.83;;;;;;;;;;5016570;28;20207;-65
2022/03/17 18:38:12;;;;;;;81.90;53.43;;;;;;;;;;5018800;28;20241;-65
2022/03/17 18:40:39;;;;;;;83.57;55.07;;;;;;;;;;5024118;28;20651;-64
2022/03/17 18:43:07;;;;;;;82.97;53.47;;;;;;;;;;5020162;28;20207;-64
2022/03/17 18:45:34;;;;;;;77.23;50.57;;;;;;;;;;5025097;23;20228;-62
2022/03/17 18:48:02;;;;;;;80.03;53.73;;;;;;;;;;4982214;28;20212;-62
2022/03/17 18:50:29;;;;;;;73.40;49.07;;;;;;;;;;4996443;28;20210;-62
2022/03/17 18:52:57;;;;;;;72.23;49.47;;;;;;;;;;4993687;28;20669;-62
2022/03/17 18:55:25;;;;;;;78.17;49.73;;;;;;;;;;4975693;28;20571;-62
2022/03/17 18:58:16;;;;;;;74.20;50.47;;;;;;;;;;4991207;28;20277;-60
2022/03/17 19:01:10;;;;;;;77.30;49.20;;;;;;;;;;4992853;28;20270;-60
2022/03/17 19:04:01;;;;;;;77.57;50.27;;;;;;;;;;4997156;28;20218;-61
2022/03/17 19:06:54;;;;;;;74.30;49.53;;;;;;;;;;4984390;28;20477;-61
2022/03/17 19:09:45;;;;;;;78.57;50.07;;;;;;;;;;4977132;28;20233;-61
2022/03/17 19:12:36;;;;;;;87.67;55.60;;;;;;;;;;4968418;28;20482;-62
2022/03/17 19:15:27;;;;;;;95.97;61.97;;;;;;;;;;4986267;28;20206;-61
2022/03/17 19:18:10;;;;;;;138.90;83.57;;;;;;;;;;4991256;28;20235;-63
2022/03/17 19:20:38;;;;;;;118.87;71.70;;;;;;;;;;4992202;28;20223;-63
2022/03/17 19:23:06;;;;;;;105.47;65.00;;;;;;;;;;4987140;28;20231;-64
2022/03/17 19:25:33;;;;;;;83.87;56.00;;;;;;;;;;4974077;28;20266;-59
2022/03/17 19:28:01;;;;;;;149.23;109.67;;;;;;;;;;4998443;28;20745;-61
2022/03/17 19:30:28;;;;;;;82.10;53.80;;;;;;;;;;4992330;28;22212;-61
2022/03/17 19:32:57;;;;;;;83.27;54.40;;;;;;;;;;4977141;28;20681;-63
2022/03/17 19:35:25;;;;;;;81.53;50.83;;;;;;;;;;4997224;28;20211;-60
2022/03/17 19:37:52;;;;;;;78.07;50.80;;;;;;;;;;4991989;28;20227;-61
2022/03/17 19:40:19;;;;;;;80.47;51.37;;;;;;;;;;4976018;28;20242;-63
2022/03/17 19:42:47;;;;;;;82.23;53.00;;;;;;;;;;4980788;28;20683;-62
2022/03/17 19:45:14;;;;;;;85.33;54.93;;;;;;;;;;4999803;28;20196;-61
2022/03/17 19:47:44;;;;;;;91.57;54.97;;;;;;;;;;4998997;28;20212;-59
2022/03/17 19:53:04;;;;;;;82.60;51.97;;;;;;;;;;4998743;28;20266;-62
2022/03/17 19:55:31;;;;;;;79.70;51.40;;;;;;;;;;4977907;28;20216;-60
2022/03/17 19:57:59;;;;;;;82.27;53.50;;;;;;;;;;4995591;28;20231;-63
2022/03/17 20:00:27;;;;;;;82.03;53.60;;;;;;;;;;4981622;28;20203;-61
2022/03/17 20:02:54;;;;;;;77.83;51.37;;;;;;;;;;4993071;28;20211;-61
2022/03/17 20:05:22;;;;;;;82.30;53.70;;;;;;;;;;4974087;28;20203;-62
2022/03/17 20:07:53;;;;;;;77.03;51.37;;;;;;;;;;4992532;28;20376;-61
2022/03/17 20:10:20;;;;;;;81.57;51.63;;;;;;;;;;4989732;28;20220;-64
2022/03/17 20:15:35;;;;;;;85.47;52.10;;;;;;;;;;4993780;28;20254;-60
2022/03/17 20:18:03;;;;;;;84.57;54.43;;;;;;;;;;4973220;28;20232;-61
2022/03/17 20:20:30;;;;;;;89.40;57.53;;;;;;;;;;4995123;28;20223;-62
2022/03/17 20:22:58;;;;;;;89.93;56.60;;;;;;;;;;4977587;28;20200;-62
2022/03/17 20:25:25;;;;;;;86.43;56.23;;;;;;;;;;4996719;28;20620;-62
2022/03/17 20:27:53;;;;;;;87.07;55.17;;;;;;;;;;4985860;28;20196;-61
2022/03/17 20:30:20;;;;;;;85.43;54.97;;;;;;;;;;4993903;28;20290;-62
2022/03/17 20:32:48;;;;;;;86.90;54.33;;;;;;;;;;4999828;28;20201;-61
2022/03/17 20:35:15;;;;;;;89.83;57.00;;;;;;;;;;5004188;28;20239;-62
2022/03/17 20:37:43;;;;;;;89.73;56.17;;;;;;;;;;5005154;28;20614;-62
2022/03/17 20:40:11;;;;;;;88.63;54.97;;;;;;;;;;5005900;28;20274;-61
2022/03/17 20:42:38;;;;;;;94.87;56.17;;;;;;;;;;4992209;28;20207;-62
2022/03/17 20:45:06;;;;;;;86.00;54.77;;;;;;;;;;4977699;28;20212;-61
2022/03/17 20:47:33;;;;;;;92.67;57.13;;;;;;;;;;4983966;28;20207;-62
2022/03/17 20:50:01;;;;;;;94.03;59.73;;;;;;;;;;4984769;28;20247;-61
2022/03/17 20:52:28;;;;;;;91.70;57.47;;;;;;;;;;5001559;28;20215;-63
2022/03/17 20:54:56;;;;;;;92.77;57.67;;;;;;;;;;4991603;28;20220;-62
2022/03/17 20:57:23;;;;;;;96.03;56.33;;;;;;;;;;4997020;28;20211;-63
2022/03/17 20:59:50;;;;;;;93.67;58.27;;;;;;;;;;4998079;28;20620;-62
2022/03/17 21:02:19;;;;;;;98.40;59.27;;;;;;;;;;5009045;28;20199;-62
2022/03/17 21:04:46;;;;;;;98.53;59.13;;;;;;;;;;4993142;28;20214;-62
2022/03/17 21:07:14;;;;;;;97.37;60.13;;;;;;;;;;5001092;28;20203;-62
2022/03/17 21:09:41;;;;;;;97.50;59.80;;;;;;;;;;4999756;28;20232;-63
2022/03/17 21:12:09;;;;;;;103.23;61.00;;;;;;;;;;4999318;28;22417;-62
2022/03/17 21:14:36;;;;;;;97.97;61.90;;;;;;;;;;4974859;28;20215;-61
2022/03/17 21:17:04;;;;;;;100.33;60.83;;;;;;;;;;4984833;28;20595;-61
2022/03/17 21:19:31;;;;;;;95.60;58.47;;;;;;;;;;4996002;28;20235;-61
2022/03/17 21:21:59;;;;;;;99.37;60.10;;;;;;;;;;4995280;28;20206;-62
2022/03/17 21:24:27;;;;;;;96.37;59.53;;;;;;;;;;4988647;28;20211;-61
2022/03/17 21:26:54;;;;;;;104.97;61.20;;;;;;;;;;4986808;28;20203;-61
2022/03/17 21:29:22;;;;;;;97.67;59.83;;;;;;;;;;4993678;28;20231;-61
2022/03/17 21:31:49;;;;;;;103.60;61.50;;;;;;;;;;4996882;28;20217;-61
2022/03/17 21:34:20;;;;;;;102.67;61.30;;;;;;;;;;4996544;28;20266;-61
2022/03/17 21:36:48;;;;;;;103.43;60.73;;;;;;;;;;4967990;28;20223;-62
2022/03/17 21:39:16;;;;;;;106.13;61.33;;;;;;;;;;4976244;28;20812;-65
2022/03/17 21:41:44;;;;;;;99.03;59.90;;;;;;;;;;5000490;28;20208;-63
2022/03/17 21:44:13;;;;;;;95.00;57.30;;;;;;;;;;4988092;28;20249;-62
2022/03/17 21:46:41;;;;;;;96.90;59.77;;;;;;;;;;4983166;28;20347;-63
2022/03/17 21:49:09;;;;;;;98.27;59.63;;;;;;;;;;4984255;28;20294;-61
2022/03/17 21:51:36;;;;;;;102.00;59.03;;;;;;;;;;4998975;28;20219;-63
2022/03/17 21:54:05;;;;;;;94.60;58.20;;;;;;;;;;4999017;28;20208;-63
2022/03/17 21:56:33;;;;;;;91.37;56.47;;;;;;;;;;4995800;28;20798;-61
2022/03/17 21:59:00;;;;;;;90.40;55.33;;;;;;;;;;4995919;28;20227;-60
2022/03/17 22:01:28;;;;;;;90.87;54.63;;;;;;;;;;4996522;28;20217;-63
2022/03/17 22:03:56;;;;;;;88.97;54.47;;;;;;;;;;4998111;28;20625;-62
2022/03/17 22:06:27;;;;;;;86.77;54.27;;;;;;;;;;5003466;28;20211;-64
2022/03/17 22:09:14;;;;;;;84.77;50.97;;;;;;;;;;4998688;28;20235;-63
2022/03/17 22:11:42;;;;;;;85.77;52.40;;;;;;;;;;5001049;28;20787;-61
2022/03/17 22:14:09;;;;;;;81.43;50.20;;;;;;;;;;4978543;28;20700;-61
2022/03/17 22:16:37;;;;;;;81.70;50.67;;;;;;;;;;4999815;28;20703;-60
2022/03/17 22:19:04;;;;;;;79.13;49.30;;;;;;;;;;5000301;28;20227;-61
2022/03/17 22:21:32;;;;;;;78.30;48.90;;;;;;;;;;4982724;28;20222;-61
2022/03/17 22:24:00;;;;;;;75.60;47.43;;;;;;;;;;4984816;28;20203;-61
2022/03/17 22:26:29;;;;;;;76.63;47.37;;;;;;;;;;4990326;28;20661;-59
2022/03/17 22:28:57;;;;;;;73.53;46.33;;;;;;;;;;4998042;28;20281;-61
2022/03/17 22:31:24;;;;;;;65.03;42.80;;;;;;;;;;4993991;28;20230;-61
2022/03/17 22:33:51;;;;;;;68.30;43.60;;;;;;;;;;4993217;28;20242;-62
2022/03/17 22:36:19;;;;;;;66.90;41.97;;;;;;;;;;4993212;28;20215;-61
2022/03/17 22:38:49;;;;;;;66.27;42.47;;;;;;;;;;5000454;28;20294;-60
2022/03/17 22:41:30;;;;;;;64.23;42.97;;;;;;;;;;4995315;28;20207;-62
2022/03/17 22:44:15;;;;;;;62.77;41.47;;;;;;;;;;5010402;28;20533;-61
2022/03/17 22:46:43;;;;;;;60.07;39.27;;;;;;;;;;5007052;28;20238;-61
2022/03/17 22:49:10;;;;;;;60.33;40.53;;;;;;;;;;4998716;28;20235;-63
2022/03/17 22:51:39;;;;;;;56.93;38.87;;;;;;;;;;4992603;28;20219;-62
2022/03/17 22:54:06;;;;;;;60.63;39.27;;;;;;;;;;4978559;28;20265;-64
2022/03/17 22:56:34;;;;;;;54.60;38.07;;;;;;;;;;4985756;28;20208;-60
2022/03/17 22:59:01;;;;;;;57.67;39.53;;;;;;;;;;5005638;28;20301;-60
2022/03/17 23:01:29;;;;;;;58.23;38.60;;;;;;;;;;4977763;28;20590;-62
2022/03/17 23:03:58;;;;;;;57.63;37.53;;;;;;;;;;4992955;28;20208;-61
2022/03/17 23:06:25;;;;;;;53.83;37.37;;;;;;;;;;4982000;28;20578;-61
2022/03/17 23:08:53;;;;;;;53.13;35.33;;;;;;;;;;4994843;28;20763;-61
2022/03/17 23:11:20;;;;;;;52.97;36.60;;;;;;;;;;5001236;28;20624;-61
2022/03/17 23:13:50;;;;;;;52.03;34.03;;;;;;;;;;5002103;28;20610;-63
2022/03/17 23:16:18;;;;;;;51.23;35.93;;;;;;;;;;4986039;28;20237;-61
2022/03/17 23:18:46;;;;;;;53.00;34.90;;;;;;;;;;4992221;28;20618;-61
2022/03/17 23:21:16;;;;;;;55.00;35.37;;;;;;;;;;4991779;28;20200;-61
2022/03/17 23:23:44;;;;;;;53.30;34.63;;;;;;;;;;4990544;28;20196;-62
2022/03/17 23:26:11;;;;;;;49.63;33.27;;;;;;;;;;4998838;28;20223;-62
2022/03/17 23:28:39;;;;;;;46.93;32.93;;;;;;;;;;4990381;28;20234;-63
2022/03/17 23:31:06;;;;;;;46.63;32.50;;;;;;;;;;4997345;28;20207;-60
2022/03/17 23:33:34;;;;;;;45.77;30.83;;;;;;;;;;4982739;28;20204;-60
2022/03/17 23:36:06;;;;;;;46.77;31.40;;;;;;;;;;4994136;28;20208;-60
2022/03/17 23:38:39;;;;;;;45.73;31.33;;;;;;;;;;4991836;28;20235;-60
2022/03/17 23:41:10;;;;;;;45.63;31.10;;;;;;;;;;4991763;28;20211;-61
2022/03/17 23:43:58;;;;;;;49.23;32.07;;;;;;;;;;4984442;28;20665;-62
2022/03/17 23:46:28;;;;;;;46.80;31.87;;;;;;;;;;5002206;28;20216;-61
2022/03/17 23:48:55;;;;;;;48.00;32.13;;;;;;;;;;4991639;28;20672;-64
2022/03/17 23:51:23;;;;;;;45.93;31.27;;;;;;;;;;4974464;28;20268;-61
2022/03/17 23:53:50;;;;;;;44.73;30.53;;;;;;;;;;4983582;28;20265;-62
2022/03/17 23:56:17;;;;;;;44.10;31.00;;;;;;;;;;4977645;28;20945;-62
2022/03/17 23:58:44;;;;;;;41.90;29.20;;;;;;;;;;4974658;28;20235;-62
